Time;durP1;ratioP1;P1;durP2;ratioP2;P2;SDS_P1;SDS_P2;PMS_P1;PMS_P2;Temp;Humidity;BMP_temperature;BMP_pressure;BME280_temperature;BME280_humidity;BME280_pressure;Samples;Min_cycle;Max_cycle;Signal;HPM_P1;HPM_P2
2022/08/08 00:01:42;;;;;;;6.80;4.87;;;16.20;63.60;;;;;;5105766;28;20541;-62
2022/08/08 00:04:24;;;;;;;5.90;4.03;;;16.10;64.10;;;;;;5104959;28;20518;-59
2022/08/08 00:07:05;;;;;;;4.40;4.00;;;16.10;64.50;;;;;;5103800;28;20443;-60
2022/08/08 00:09:40;;;;;;;4.63;4.10;;;16.00;64.90;;;;;;5109559;28;20540;-59
2022/08/08 00:12:13;;;;;;;5.03;3.87;;;16.00;65.30;;;;;;5094711;28;20460;-60
2022/08/08 00:14:52;;;;;;;3.90;3.60;;;16.00;65.80;;;;;;5110550;28;20480;-60
2022/08/08 00:17:27;;;;;;;5.13;4.47;;;16.00;66.20;;;;;;5095222;28;20880;-61
2022/08/08 00:20:00;;;;;;;5.60;3.70;;;15.90;66.50;;;;;;5102982;28;20445;-58
2022/08/08 00:22:35;;;;;;;6.30;4.57;;;15.90;67.10;;;;;;5101297;28;20476;-59
2022/08/08 00:25:08;;;;;;;4.33;3.93;;;15.80;67.70;;;;;;5095290;28;20550;-59
2022/08/08 00:27:37;;;;;;;4.27;3.87;;;15.80;68.20;;;;;;5108843;28;20612;-60
2022/08/08 00:30:08;;;;;;;6.03;4.33;;;15.80;68.60;;;;;;5101291;28;20531;-60
2022/08/08 00:32:42;;;;;;;6.60;4.53;;;15.80;69.00;;;;;;5122355;28;20633;-60
2022/08/08 00:35:29;;;;;;;5.20;4.60;;;15.80;69.50;;;;;;5119327;28;20492;-60
2022/08/08 00:38:23;;;;;;;4.37;3.97;;;15.70;69.80;;;;;;5113615;28;20530;-57
2022/08/08 00:41:36;;;;;;;5.10;3.90;;;15.70;70.30;;;;;;5097196;28;20518;-60
2022/08/08 00:44:25;;;;;;;4.73;3.90;;;15.60;70.80;;;;;;5108894;28;20498;-60
2022/08/08 00:47:22;;;;;;;5.17;3.67;;;15.60;71.40;;;;;;5100483;28;20430;-59
2022/08/08 00:50:04;;;;;;;4.50;4.07;;;;;;;;;;5075055;28;20541;-59
2022/08/08 00:52:38;;;;;;;5.10;4.37;;;;;;;;;;5096476;28;20473;-59
2022/08/08 00:55:11;;;;;;;4.97;4.47;;;;;;;;;;5096175;28;20556;-59
2022/08/08 00:57:56;;;;;;;5.93;4.40;;;;;;;;;;5095495;28;20529;-60
2022/08/08 01:00:24;;;;;;;4.90;4.10;;;;;;;;;;5096121;28;20448;-60
2022/08/08 01:03:25;;;;;;;4.40;3.97;;;;;;;;;;5096185;28;20568;-60
2022/08/08 01:06:10;;;;;;;4.93;3.77;;;;;;;;;;5096399;28;20434;-60
2022/08/08 01:09:04;;;;;;;6.53;4.00;;;;;;;;;;5096391;28;20569;-60
2022/08/08 01:12:00;;;;;;;4.73;4.30;;;;;;;;;;5109045;28;20466;-60
2022/08/08 01:14:54;;;;;;;5.73;4.43;;;;;;;;;;5096267;28;20553;-59
2022/08/08 01:17:42;;;;;;;4.73;4.10;;;;;;;;;;5103582;28;20449;-60
2022/08/08 01:20:27;;;;;;;4.60;4.17;;;;;;;;;;5109455;28;20449;-59
2022/08/08 01:23:28;;;;;;;6.83;4.47;;;;;;;;;;5101507;28;20475;-60
2022/08/08 01:26:08;;;;;;;5.60;4.00;;;;;;;;;;5095624;28;20445;-59
2022/08/08 01:28:48;;;;;;;5.50;4.20;;;;;;;;;;5095947;28;20439;-60
2022/08/08 01:31:35;;;;;;;4.60;4.10;;;;;;;;;;5096074;28;21029;-59
2022/08/08 01:34:20;;;;;;;7.90;5.00;;;;;;;;;;5105716;28;20437;-61
2022/08/08 01:37:02;;;;;;;5.63;4.40;;;;;;;;;;5101441;28;20519;-59
2022/08/08 01:39:34;;;;;;;6.50;4.60;;;;;;;;;;5110411;28;20636;-60
2022/08/08 01:42:06;;;;;;;6.33;4.07;;;;;;;;;;5101844;28;20906;-60
2022/08/08 01:44:41;;;;;;;5.33;3.90;;;;;;;;;;5108618;28;20529;-60
2022/08/08 01:47:14;;;;;;;4.80;4.40;;;;;;;;;;5104181;28;20437;-59
2022/08/08 01:49:46;;;;;;;5.13;4.50;;;;;;;;;;5099505;28;20433;-60
2022/08/08 01:52:18;;;;;;;4.63;4.23;;;;;;;;;;5098681;28;20510;-59
2022/08/08 01:54:53;;;;;;;4.77;4.30;;;;;;;;;;5103228;28;20472;-59
2022/08/08 01:57:26;;;;;;;5.80;4.33;;;;;;;;;;5109250;28;20860;-60
2022/08/08 02:00:04;;;;;;;4.97;4.23;;;;;;;;;;5110423;28;20443;-59
2022/08/08 02:02:38;;;;;;;5.70;4.47;;;;;;;;;;5110603;28;20984;-59
2022/08/08 02:05:13;;;;;;;5.70;4.50;;;;;;;;;;5128729;28;20442;-60
2022/08/08 02:07:52;;;;;;;4.90;4.50;;;;;;;;;;5109893;28;20434;-61
2022/08/08 02:10:33;;;;;;;6.17;4.40;;;;;;;;;;5110165;27;20545;-59
2022/08/08 02:13:02;;;;;;;6.60;5.20;;;;;;;;;;5105713;28;21053;-60
2022/08/08 02:15:35;;;;;;;6.00;5.30;;;;;;;;;;5105057;28;20480;-59
2022/08/08 02:18:07;;;;;;;6.60;4.60;;;;;;;;;;5109477;28;20483;-59
2022/08/08 02:20:38;;;;;;;5.00;4.20;;;;;;;;;;5097646;28;20809;-60
2022/08/08 02:23:09;;;;;;;5.17;4.53;;;;;;;;;;5105596;28;20470;-62
2022/08/08 02:25:41;;;;;;;6.43;4.80;;;;;;;;;;5119430;28;20426;-59
2022/08/08 02:28:11;;;;;;;5.90;5.30;;;;;;;;;;5134307;28;20460;-59
2022/08/08 02:30:49;;;;;;;4.77;4.23;;;;;;;;;;5107335;28;20456;-60
2022/08/08 02:33:37;;;;;;;4.23;3.83;;;;;;;;;;5104298;28;20451;-59
2022/08/08 02:36:13;;;;;;;4.67;4.27;;;;;;;;;;5097678;28;20466;-59
2022/08/08 02:39:00;;;;;;;5.97;4.40;;;;;;;;;;5111085;28;20521;-60
2022/08/08 02:41:40;;;;;;;5.90;4.73;;;;;;;;;;5104183;28;20496;-60
2022/08/08 02:44:19;;;;;;;6.60;4.90;;;;;;;;;;5098663;28;20530;-59
2022/08/08 02:46:59;;;;;;;8.10;5.00;;;;;;;;;;5110685;28;20498;-59
2022/08/08 02:49:47;;;;;;;7.03;4.73;;;;;;;;;;5112417;28;20432;-61
2022/08/08 02:52:26;;;;;;;5.40;4.90;;;;;;;;;;5102448;28;20520;-61
2022/08/08 02:55:05;;;;;;;5.00;4.33;;;;;;;;;;5095462;28;20444;-60
2022/08/08 02:57:59;;;;;;;5.30;4.57;;;;;;;;;;5112819;28;20523;-61
2022/08/08 03:00:42;;;;;;;5.23;4.73;;;;;;;;;;5100420;28;20446;-59
2022/08/08 03:03:28;;;;;;;5.40;4.77;;;;;;;;;;5094535;28;20506;-60
2022/08/08 03:06:29;;;;;;;5.27;4.47;;;;;;;;;;5098070;28;20964;-60
2022/08/08 03:09:20;;;;;;;5.87;4.60;;;;;;;;;;5093935;28;20446;-60
2022/08/08 03:12:10;;;;;;;5.20;4.50;;;;;;;;;;5112559;28;20544;-60
2022/08/08 03:14:56;;;;;;;8.13;5.57;;;;;;;;;;5105694;28;20484;-61
2022/08/08 03:17:26;;;;;;;5.70;4.90;;;;;;;;;;5107538;28;20449;-60
2022/08/08 03:20:04;;;;;;;9.30;4.23;;;;;;;;;;5096364;28;20985;-60
2022/08/08 03:22:31;;;;;;;6.67;4.47;;;;;;;;;;5096933;28;20473;-60
2022/08/08 03:25:00;;;;;;;7.20;5.33;;;;;;;;;;5107760;28;20453;-59
2022/08/08 03:27:30;;;;;;;6.50;5.37;;;;;;;;;;5096231;28;20447;-60
2022/08/08 03:30:00;;;;;;;6.80;5.07;;;;;;;;;;5099919;28;20799;-60
2022/08/08 03:35:12;;;;;;;5.30;4.80;;;;;;;;;;5100697;28;20461;-59
2022/08/08 03:37:39;;;;;;;5.43;4.93;;;;;;;;;;5093752;28;20472;-59
2022/08/08 03:40:09;;;;;;;5.80;4.50;;;;;;;;;;5097703;28;20532;-60
2022/08/08 03:42:37;;;;;;;6.80;4.53;;;;;;;;;;5093986;28;20869;-60
2022/08/08 03:45:13;;;;;;;6.80;5.33;;;;;;;;;;5097424;28;20450;-59
2022/08/08 03:47:40;;;;;;;7.07;5.00;;;;;;;;;;5108268;28;20524;-60
2022/08/08 03:50:15;;;;;;;8.20;5.20;;;;;;;;;;5103498;28;20532;-60
2022/08/08 03:52:43;;;;;;;5.90;5.30;;;;;;;;;;5099065;28;20462;-60
2022/08/08 03:55:13;;;;;;;5.67;5.17;;;;;;;;;;5108140;28;20455;-59
2022/08/08 03:57:45;;;;;;;7.27;5.50;;;;;;;;;;5114372;28;20543;-60
2022/08/08 04:00:13;;;;;;;6.40;4.80;;;;;;;;;;5111635;28;20478;-58
2022/08/08 04:02:41;;;;;;;6.57;5.63;;;;;;;;;;5099738;28;20476;-61
2022/08/08 04:05:09;;;;;;;5.43;4.97;;;;;;;;;;5093399;28;20442;-59
2022/08/08 04:10:06;;;;;;;7.00;5.87;;;;;;;;;;5131661;27;20581;-60
2022/08/08 04:12:33;;;;;;;5.63;5.10;;;;;;;;;;5116824;27;20479;-59
2022/08/08 04:15:01;;;;;;;6.63;5.67;;;;;;;;;;5110741;28;20548;-60
2022/08/08 04:17:28;;;;;;;5.80;5.20;;;;;;;;;;5110739;28;20892;-58
2022/08/08 04:19:56;;;;;;;6.60;6.00;;;;;;;;;;5117981;28;20442;-59
2022/08/08 04:22:25;;;;;;;5.47;4.93;;;;;;;;;;5113832;28;20474;-59
2022/08/08 04:24:53;;;;;;;6.73;5.80;;;;;;;;;;5109561;28;20537;-60
2022/08/08 04:27:22;;;;;;;6.40;5.80;;;;;;;;;;5109931;28;20449;-59
2022/08/08 04:29:50;;;;;;;6.50;5.23;;;;;;;;;;5110520;28;20473;-59
2022/08/08 04:32:17;;;;;;;8.47;5.83;;;14.10;91.70;;;;;;5110664;28;20474;-59
2022/08/08 04:34:45;;;;;;;7.90;5.47;;;15.00;91.70;;;;;;5110388;28;20441;-59
2022/08/08 04:37:13;;;;;;;8.20;5.50;;;15.30;91.10;;;;;;5109799;28;20448;-59
2022/08/08 04:39:40;;;;;;;6.10;5.50;;;15.50;90.90;;;;;;5110002;28;20438;-59
2022/08/08 04:42:08;;;;;;;6.97;5.90;;;15.70;90.70;;;;;;5109992;28;20465;-58
2022/08/08 04:44:37;;;;;;;6.67;5.97;;;15.90;90.40;;;;;;5109669;28;20442;-60
2022/08/08 04:47:04;;;;;;;6.83;5.87;;;16.20;90.10;;;;;;5109253;28;20460;-61
2022/08/08 04:49:31;;;;;;;7.23;5.37;;;16.30;89.20;;;;;;5109891;28;20476;-57
2022/08/08 04:51:59;;;;;;;8.30;5.30;;;16.60;88.40;;;;;;5109600;28;20489;-59
2022/08/08 04:54:26;;;;;;;7.13;5.67;;;16.70;87.40;;;;;;5109508;28;20538;-59
2022/08/08 04:56:54;;;;;;;7.30;6.07;;;16.90;86.60;;;;;;5109212;28;20442;-59
2022/08/08 04:59:21;;;;;;;6.30;5.10;;;17.10;85.50;;;;;;5109325;28;20438;-59
2022/08/08 05:01:50;;;;;;;6.07;5.47;;;17.30;84.50;;;;;;5109597;28;20489;-59
2022/08/08 05:04:17;;;;;;;7.67;6.00;;;17.40;83.30;;;;;;5109255;28;20674;-59
2022/08/08 05:06:46;;;;;;;8.93;6.10;;;17.60;82.30;;;;;;5109092;28;20446;-60
2022/08/08 05:09:13;;;;;;;10.50;6.00;;;17.70;81.20;;;;;;5108594;28;20474;-59
2022/08/08 05:11:40;;;;;;;7.93;5.67;;;17.80;80.30;;;;;;5110081;28;20536;-59
2022/08/08 05:14:08;;;;;;;6.73;5.67;;;18.00;79.10;;;;;;5109565;28;20442;-62
2022/08/08 05:16:35;;;;;;;7.30;6.60;;;18.00;78.70;;;;;;5108854;28;20443;-59
2022/08/08 05:19:04;;;;;;;8.10;6.10;;;18.10;77.30;;;;;;5109414;28;20470;-60
2022/08/08 05:21:31;;;;;;;7.27;6.53;;;18.20;76.30;;;;;;5095395;28;21020;-60
2022/08/08 05:23:59;;;;;;;6.47;5.87;;;18.30;75.60;;;;;;5096807;28;20507;-59
2022/08/08 05:26:26;;;;;;;6.27;5.67;;;18.30;75.10;;;;;;5096281;28;20450;-57
2022/08/08 05:28:53;;;;;;;6.90;5.90;;;18.30;74.40;;;;;;5096416;28;20562;-58
2022/08/08 05:31:20;;;;;;;7.57;6.10;;;18.40;73.60;;;;;;5096130;28;20916;-60
2022/08/08 05:33:48;;;;;;;6.60;5.90;;;18.50;73.10;;;;;;5095568;28;20943;-60
2022/08/08 05:36:17;;;;;;;9.50;6.30;;;18.50;72.70;;;;;;5095172;28;20493;-59
2022/08/08 05:38:47;;;;;;;9.53;6.50;;;18.60;71.90;;;;;;5096080;28;20868;-58
2022/08/08 05:41:17;;;;;;;7.70;5.80;;;18.60;71.20;;;;;;5096737;28;20456;-59
2022/08/08 05:43:47;;;;;;;6.20;5.27;;;18.60;70.50;;;;;;5096583;28;20480;-59
2022/08/08 05:46:15;;;;;;;7.93;5.80;;;18.60;70.30;;;;;;5096011;28;20472;-58
2022/08/08 05:48:43;;;;;;;7.27;5.90;;;18.60;70.20;;;;;;5095511;28;20950;-58
2022/08/08 05:51:11;;;;;;;7.47;6.00;;;18.50;70.10;;;;;;5095634;28;20460;-59
2022/08/08 05:53:40;;;;;;;7.13;6.13;;;18.50;70.20;;;;;;5096076;28;20939;-59
2022/08/08 05:56:08;;;;;;;8.63;6.20;;;18.50;70.10;;;;;;5096095;28;20483;-59
2022/08/08 05:58:42;;;;;;;6.70;5.73;;;18.40;70.10;;;;;;5096726;28;20443;-57
2022/08/08 06:01:13;;;;;;;7.33;6.43;;;18.30;70.20;;;;;;5096145;28;20543;-58
2022/08/08 06:03:42;;;;;;;8.97;5.63;;;18.20;70.30;;;;;;5104508;28;20428;-58
2022/08/08 06:06:10;;;;;;;8.23;6.47;;;18.10;70.30;;;;;;5105056;28;20444;-59
2022/08/08 06:08:43;;;;;;;7.57;6.87;;;18.00;70.10;;;;;;5105868;28;20505;-59
2022/08/08 06:11:11;;;;;;;7.17;6.47;;;18.00;70.00;;;;;;5110465;28;20519;-57
2022/08/08 06:13:38;;;;;;;10.43;6.53;;;18.00;69.70;;;;;;5106640;28;20450;-59
2022/08/08 06:16:06;;;;;;;6.47;5.73;;;17.90;69.40;;;;;;5110375;28;20434;-59
2022/08/08 06:18:35;;;;;;;7.30;6.60;;;17.90;69.20;;;;;;5103333;28;20453;-58
2022/08/08 06:21:02;;;;;;;9.63;6.13;;;17.80;68.90;;;;;;5100586;28;20443;-61
2022/08/08 06:23:29;;;;;;;6.67;5.70;;;17.80;68.90;;;;;;5107905;28;20454;-59
2022/08/08 06:26:03;;;;;;;8.47;6.27;;;17.80;68.80;;;;;;5112127;28;20446;-63
2022/08/08 06:28:32;;;;;;;8.20;6.20;;;17.90;68.50;;;;;;5113817;22;20491;-54
2022/08/08 06:31:01;;;;;;;11.73;7.30;;;17.90;68.20;;;;;;5073059;28;20452;-56
2022/08/08 06:33:37;;;;;;;11.07;6.80;;;18.00;68.00;;;;;;5073482;28;20454;-55
2022/08/08 06:36:06;;;;;;;8.33;6.33;;;18.00;67.80;;;;;;5066505;28;20443;-55
2022/08/08 06:38:37;;;;;;;8.23;6.33;;;18.00;67.70;;;;;;5072206;28;20469;-57
2022/08/08 06:41:11;;;;;;;7.00;6.30;;;18.00;67.70;;;;;;5073764;28;20470;-56
2022/08/08 06:43:43;;;;;;;6.70;6.10;;;18.00;67.50;;;;;;5073777;28;20521;-55
2022/08/08 06:46:10;;;;;;;6.70;5.73;;;18.10;67.40;;;;;;5073403;28;20440;-55
2022/08/08 06:48:38;;;;;;;8.03;5.87;;;18.20;67.10;;;;;;5082527;28;20474;-55
2022/08/08 06:51:05;;;;;;;8.90;6.10;;;18.30;67.50;;;;;;5077225;28;20552;-56
2022/08/08 06:53:33;;;;;;;9.40;5.70;;;18.30;66.50;;;;;;5094015;28;20472;-55
2022/08/08 06:56:00;;;;;;;6.33;5.70;;;18.40;66.20;;;;;;5093703;28;20444;-54
2022/08/08 06:58:29;;;;;;;6.23;5.60;;;18.40;66.10;;;;;;5093716;28;21043;-54
2022/08/08 07:00:58;;;;;;;6.60;5.70;;;18.50;65.90;;;;;;5093619;28;20460;-55
2022/08/08 07:03:40;;;;;;;9.30;6.17;;;18.50;65.60;;;;;;5093588;28;20450;-56
2022/08/08 07:06:10;;;;;;;8.57;5.83;;;18.60;65.30;;;;;;5082708;28;20530;-56
2022/08/08 07:08:39;;;;;;;7.73;6.10;;;18.70;65.00;;;;;;5072924;28;20463;-56
2022/08/08 07:11:08;;;;;;;6.80;5.90;;;18.80;64.80;;;;;;5072930;28;20451;-56
2022/08/08 07:13:43;;;;;;;7.00;5.60;;;18.90;64.40;;;;;;5073476;28;20483;-55
2022/08/08 07:16:15;;;;;;;7.33;6.33;;;19.00;64.00;;;;;;5073328;28;20438;-56
2022/08/08 07:18:56;;;;;;;9.13;6.20;;;19.10;63.80;;;;;;5072864;28;20463;-56
2022/08/08 07:21:28;;;;;;;10.23;5.37;;;19.10;63.70;;;;;;5075288;28;20450;-56
2022/08/08 07:24:00;;;;;;;7.90;6.53;;;19.20;63.50;;;;;;5093440;28;21011;-56
2022/08/08 07:26:32;;;;;;;7.47;6.13;;;19.20;63.30;;;;;;5094026;28;20529;-57
2022/08/08 07:29:02;;;;;;;6.27;5.67;;;19.30;63.30;;;;;;5084754;28;20483;-55
2022/08/08 07:31:30;;;;;;;7.40;5.23;;;19.30;62.90;;;;;;5073038;28;21001;-57
2022/08/08 07:33:58;;;;;;;8.20;5.60;;;19.50;62.70;;;;;;5073213;28;20477;-56
2022/08/08 07:36:27;;;;;;;6.73;5.43;;;19.60;62.10;;;;;;5073394;28;20546;-55
2022/08/08 07:38:56;;;;;;;6.97;5.20;;;19.70;61.80;;;;;;5073225;28;20443;-57
2022/08/08 07:41:25;;;;;;;8.73;5.60;;;19.80;61.30;;;;;;5073142;28;20475;-56
2022/08/08 07:43:55;;;;;;;4.60;4.13;;;19.90;60.90;;;;;;5072546;28;21025;-56
2022/08/08 07:46:23;;;;;;;5.83;5.23;;;19.90;60.40;;;;;;5073147;28;20509;-56
2022/08/08 07:48:50;;;;;;;6.63;5.30;;;20.00;60.10;;;;;;5072835;28;20507;-56
2022/08/08 07:51:18;;;;;;;4.73;4.30;;;20.00;59.80;;;;;;5073131;28;20882;-56
2022/08/08 07:53:50;;;;;;;7.10;5.60;;;20.10;59.70;;;;;;5073189;28;20526;-54
2022/08/08 07:56:17;;;;;;;8.80;5.67;;;20.20;59.50;;;;;;5073135;28;20605;-56
2022/08/08 07:58:48;;;;;;;6.83;5.00;;;20.30;59.20;;;;;;5072931;28;20562;-56
2022/08/08 08:01:21;;;;;;;7.67;5.00;;;20.40;59.00;;;;;;5072734;28;20438;-56
2022/08/08 08:03:54;;;;;;;6.77;5.67;;;20.50;58.60;;;;;;5072892;28;20498;-57
2022/08/08 08:06:24;;;;;;;5.03;4.50;;;20.70;58.20;;;;;;5073103;28;20428;-56
2022/08/08 08:08:56;;;;;;;6.10;4.90;;;20.80;57.50;;;;;;5072927;28;20525;-56
2022/08/08 08:11:26;;;;;;;5.50;4.90;;;20.90;56.80;;;;;;5072675;28;20973;-56
2022/08/08 08:13:59;;;;;;;4.70;4.30;;;21.00;56.20;;;;;;5072481;28;20454;-56
2022/08/08 08:16:30;;;;;;;4.60;4.00;;;21.10;55.60;;;;;;5072550;28;20468;-55
2022/08/08 08:19:01;;;;;;;6.13;4.80;;;21.20;55.30;;;;;;5072810;28;20438;-55
2022/08/08 08:21:30;;;;;;;4.67;4.27;;;21.20;54.50;;;;;;5072324;28;20439;-55
2022/08/08 08:23:57;;;;;;;5.60;5.10;;;21.20;54.10;;;;;;5072752;28;20451;-56
2022/08/08 08:26:25;;;;;;;4.37;3.97;;;21.20;53.90;;;;;;5072974;28;20539;-56
2022/08/08 08:28:52;;;;;;;4.07;3.67;;;21.30;53.90;;;;;;5071262;28;20479;-55
2022/08/08 08:31:19;;;;;;;6.33;4.60;;;21.40;53.80;;;;;;5071353;28;20566;-57
2022/08/08 08:33:47;;;;;;;4.30;3.70;;;21.60;53.40;;;;;;5071608;28;20543;-56
2022/08/08 08:36:16;;;;;;;4.97;3.97;;;21.70;53.20;;;;;;5072651;28;20544;-55
2022/08/08 08:38:43;;;;;;;3.80;3.33;;;21.90;51.90;;;;;;5072897;28;20510;-55
2022/08/08 08:41:11;;;;;;;4.90;3.30;;;21.90;51.50;;;;;;5072735;28;20440;-55
2022/08/08 08:43:40;;;;;;;8.00;3.90;;;22.00;51.10;;;;;;5072545;28;20445;-55
2022/08/08 08:46:09;;;;;;;5.53;4.03;;;22.10;50.60;;;;;;5073445;28;20491;-55
2022/08/08 08:48:37;;;;;;;5.43;3.43;;;22.10;50.00;;;;;;5073192;28;20484;-55
2022/08/08 08:51:09;;;;;;;3.67;3.27;;;22.20;49.80;;;;;;5072969;28;20564;-55
2022/08/08 08:53:43;;;;;;;3.70;3.10;;;22.40;49.50;;;;;;5072592;28;20527;-55
2022/08/08 08:56:12;;;;;;;10.50;4.73;;;22.50;48.90;;;;;;5075423;28;20520;-55
2022/08/08 08:58:42;;;;;;;5.00;2.90;;;22.60;48.40;;;;;;5075830;28;20553;-55
2022/08/08 09:01:11;;;;;;;3.50;2.80;;;22.70;48.00;;;;;;5076083;28;20446;-56
2022/08/08 09:03:40;;;;;;;4.57;3.50;;;22.90;47.70;;;;;;5076120;28;20503;-55
2022/08/08 09:06:10;;;;;;;4.90;3.40;;;23.10;47.20;;;;;;5076137;28;20544;-55
2022/08/08 09:08:43;;;;;;;3.03;2.63;;;23.20;46.70;;;;;;5076284;28;20560;-56
2022/08/08 09:11:12;;;;;;;4.03;2.90;;;23.30;46.30;;;;;;5076078;28;20592;-55
2022/08/08 09:13:39;;;;;;;3.77;3.10;;;23.40;45.70;;;;;;5076150;28;20474;-55
2022/08/08 09:16:08;;;;;;;2.90;2.70;;;23.60;45.40;;;;;;5075952;28;20866;-56
2022/08/08 09:18:36;;;;;;;2.97;2.67;;;23.70;45.00;;;;;;5075651;28;21045;-56
2022/08/08 09:21:03;;;;;;;5.97;2.87;;;23.70;44.80;;;;;;5075433;28;20529;-54
2022/08/08 09:23:31;;;;;;;3.50;3.20;;;23.80;44.60;;;;;;5076278;28;20538;-56
2022/08/08 09:26:04;;;;;;;5.07;2.80;;;23.90;44.20;;;;;;5075908;28;20894;-53
2022/08/08 09:28:40;;;;;;;3.40;3.10;;;24.00;43.90;;;;;;5075547;28;20978;-56
2022/08/08 09:31:13;;;;;;;2.97;2.77;;;24.00;43.80;;;;;;5076213;28;20550;-54
2022/08/08 09:33:44;;;;;;;3.13;2.83;;;24.10;43.70;;;;;;5075896;28;20446;-55
2022/08/08 09:36:21;;;;;;;6.43;2.93;;;24.10;43.50;;;;;;5075533;28;20972;-55
2022/08/08 09:38:54;;;;;;;3.13;2.87;;;24.10;43.10;;;;;;5075351;28;20835;-56
2022/08/08 09:41:35;;;;;;;4.63;2.70;;;24.10;42.90;;;;;;5075760;28;20455;-55
2022/08/08 09:44:15;;;;;;;3.60;2.97;;;24.20;42.80;;;;;;5075378;28;20462;-54
2022/08/08 09:46:45;;;;;;;3.60;3.20;;;24.40;42.50;;;;;;5075587;28;20822;-56
2022/08/08 09:49:13;;;;;;;3.20;2.90;;;24.50;42.20;;;;;;5075508;28;20457;-56
2022/08/08 09:51:41;;;;;;;4.67;2.90;;;24.60;42.30;;;;;;5075159;28;20578;-56
2022/08/08 09:54:09;;;;;;;2.80;2.60;;;24.60;41.40;;;;;;5074972;28;20937;-55
2022/08/08 09:56:47;;;;;;;4.37;2.70;;;24.70;41.30;;;;;;5074967;28;21031;-55
2022/08/08 09:59:21;;;;;;;3.13;2.80;;;24.70;41.10;;;;;;5074880;28;20467;-55
2022/08/08 10:01:52;;;;;;;4.67;3.07;;;24.70;41.00;;;;;;5075004;28;20870;-55
2022/08/08 10:04:22;;;;;;;3.00;2.70;;;24.90;40.80;;;;;;5074946;28;20518;-54
2022/08/08 10:06:52;;;;;;;7.10;3.70;;;24.90;40.50;;;;;;5074516;28;20981;-54
2022/08/08 10:09:32;;;;;;;3.60;3.03;;;25.00;40.30;;;;;;5075145;28;20471;-56
2022/08/08 10:12:02;;;;;;;3.30;3.00;;;25.00;40.10;;;;;;5074680;28;20792;-52
2022/08/08 10:14:33;;;;;;;3.70;2.83;;;25.00;40.00;;;;;;5074652;28;20976;-54
2022/08/08 10:17:02;;;;;;;3.50;2.60;;;25.00;39.90;;;;;;5074693;28;20554;-54
2022/08/08 10:19:40;;;;;;;5.50;2.90;;;25.10;39.90;;;;;;5074369;28;20870;-54
2022/08/08 10:22:09;;;;;;;5.53;3.10;;;25.30;39.60;;;;;;5074272;28;20890;-55
2022/08/08 10:24:45;;;;;;;2.77;2.53;;;25.50;39.20;;;;;;5074562;28;20447;-55
2022/08/08 10:27:16;;;;;;;5.20;2.97;;;25.60;38.50;;;;;;5074822;28;20494;-56
2022/08/08 10:29:53;;;;;;;3.60;3.30;;;25.70;38.40;;;;;;5074163;28;20819;-55
2022/08/08 10:32:34;;;;;;;4.10;3.07;;;25.70;38.30;;;;;;5074364;28;20437;-55
2022/08/08 10:35:07;;;;;;;7.40;3.50;;;25.80;38.10;;;;;;5074166;28;20938;-56
2022/08/08 10:37:35;;;;;;;3.80;3.20;;;25.80;37.90;;;;;;5073780;28;20517;-55
2022/08/08 10:40:13;;;;;;;2.80;2.60;;;25.90;37.70;;;;;;5074052;28;20449;-55
2022/08/08 10:42:42;;;;;;;4.90;3.20;;;25.90;37.50;;;;;;5074542;28;20435;-54
2022/08/08 10:45:12;;;;;;;4.13;2.60;;;26.00;37.20;;;;;;5075370;28;20443;-55
2022/08/08 10:47:43;;;;;;;3.10;2.80;;;26.00;37.00;;;;;;5075741;28;20574;-55
2022/08/08 10:50:11;;;;;;;4.67;3.10;;;26.00;36.90;;;;;;5074674;28;20517;-56
2022/08/08 10:52:41;;;;;;;5.13;3.40;;;25.90;36.80;;;;;;5075137;28;20464;-55
2022/08/08 10:55:12;;;;;;;3.30;2.70;;;26.00;36.90;;;;;;5075621;28;20443;-57
2022/08/08 10:57:43;;;;;;;5.63;3.27;;;26.10;36.80;;;;;;5075648;28;20526;-55
2022/08/08 11:00:13;;;;;;;3.10;2.80;;;26.20;36.60;;;;;;5075687;28;20419;-56
2022/08/08 11:02:40;;;;;;;5.53;2.63;;;26.30;36.30;;;;;;5075063;28;20475;-55
2022/08/08 11:05:10;;;;;;;3.57;2.90;;;26.40;36.10;;;;;;5074631;28;20565;-55
2022/08/08 11:07:39;;;;;;;3.00;2.70;;;26.50;36.00;;;;;;5074441;28;20481;-57
2022/08/08 11:10:09;;;;;;;3.50;2.80;;;26.50;35.80;;;;;;5075190;28;20869;-55
2022/08/08 11:12:47;;;;;;;4.23;3.10;;;26.40;35.60;;;;;;5075690;28;20455;-55
2022/08/08 11:15:16;;;;;;;3.20;2.70;;;26.40;35.60;;;;;;5073906;28;20516;-54
2022/08/08 11:17:45;;;;;;;3.03;2.37;;;26.40;35.60;;;;;;5073414;28;20841;-55
2022/08/08 11:20:15;;;;;;;3.80;3.17;;;26.40;35.50;;;;;;5074851;28;20494;-56
2022/08/08 11:22:42;;;;;;;2.73;2.50;;;26.40;35.50;;;;;;5073781;28;20537;-55
2022/08/08 11:25:11;;;;;;;4.27;3.17;;;26.30;35.40;;;;;;5073107;28;20476;-56
2022/08/08 11:27:39;;;;;;;3.87;2.90;;;26.20;35.50;;;;;;5073261;28;20479;-55
2022/08/08 11:30:10;;;;;;;3.10;2.80;;;26.30;35.60;;;;;;5073227;28;20449;-55
2022/08/08 11:32:39;;;;;;;4.77;2.60;;;26.30;35.30;;;;;;5073746;28;20939;-56
2022/08/08 11:35:09;;;;;;;4.97;2.90;;;26.40;35.10;;;;;;5073509;28;20443;-55
2022/08/08 11:37:38;;;;;;;3.13;2.60;;;26.40;34.90;;;;;;5073088;28;20465;-56
2022/08/08 11:40:08;;;;;;;3.07;2.70;;;26.50;34.60;;;;;;5073074;28;20494;-54
2022/08/08 11:42:35;;;;;;;2.90;2.60;;;26.60;34.40;;;;;;5073455;28;20447;-56
2022/08/08 11:45:05;;;;;;;3.53;2.50;;;26.70;34.20;;;;;;5073040;28;20451;-56
2022/08/08 11:47:35;;;;;;;3.33;2.70;;;26.70;33.90;;;;;;5073490;28;20481;-54
2022/08/08 11:50:04;;;;;;;3.50;3.07;;;26.90;33.80;;;;;;5073873;28;20542;-54
2022/08/08 11:52:33;;;;;;;2.87;2.60;;;26.80;33.70;;;;;;5072786;28;20448;-55
2022/08/08 11:55:00;;;;;;;3.63;3.00;;;26.80;33.90;;;;;;5072764;28;20683;-56
2022/08/08 11:57:32;;;;;;;3.83;2.80;;;27.10;33.90;;;;;;5072937;28;20813;-55
2022/08/08 12:00:01;;;;;;;3.47;3.17;;;27.70;33.40;;;;;;5072674;28;20903;-55
2022/08/08 12:02:30;;;;;;;3.20;2.90;;;28.50;32.10;;;;;;5072592;28;20441;-55
2022/08/08 12:05:05;;;;;;;3.77;2.40;;;29.00;31.00;;;;;;5072579;28;20461;-56
2022/08/08 12:07:43;;;;;;;3.50;2.93;;;29.20;30.50;;;;;;5072669;28;20472;-55
2022/08/08 12:10:11;;;;;;;3.20;2.80;;;29.40;30.30;;;;;;5072924;28;20441;-55
2022/08/08 12:12:43;;;;;;;2.63;2.30;;;29.70;30.00;;;;;;5072677;28;20993;-55
2022/08/08 12:15:11;;;;;;;3.30;3.00;;;30.10;29.80;;;;;;5072585;28;20997;-55
2022/08/08 12:17:41;;;;;;;3.20;2.90;;;30.30;29.40;;;;;;5072722;28;20467;-55
2022/08/08 12:20:10;;;;;;;2.33;2.13;;;30.40;29.30;;;;;;5072660;28;20455;-56
2022/08/08 12:22:48;;;;;;;2.97;2.50;;;30.70;29.20;;;;;;5072742;28;20559;-57
2022/08/08 12:25:24;;;;;;;3.47;2.50;;;31.00;28.90;;;;;;5072664;28;20460;-54
2022/08/08 12:27:51;;;;;;;6.40;2.70;;;31.10;28.50;;;;;;5072009;28;20584;-56
2022/08/08 12:30:30;;;;;;;2.60;2.40;;;30.90;28.60;;;;;;5073693;28;20524;-55
2022/08/08 12:32:59;;;;;;;5.93;2.67;;;30.80;28.80;;;;;;5099036;22;20573;-61
2022/08/08 12:35:32;;;;;;;3.00;2.20;;;30.60;28.90;;;;;;5057174;28;20872;-62
2022/08/08 12:38:07;;;;;;;5.20;2.43;;;30.30;29.10;;;;;;5057456;28;20519;-63
2022/08/08 12:40:42;;;;;;;4.40;3.13;;;29.90;29.60;;;;;;5056931;28;20844;-63
2022/08/08 12:43:10;;;;;;;2.70;2.40;;;29.40;29.80;;;;;;5056834;28;20532;-62
2022/08/08 12:45:40;;;;;;;2.80;2.40;;;29.00;30.20;;;;;;5056899;28;20531;-60
2022/08/08 12:48:17;;;;;;;3.17;2.67;;;28.80;30.50;;;;;;5057259;28;20855;-61
2022/08/08 12:50:48;;;;;;;4.77;2.67;;;28.50;30.60;;;;;;5056417;28;20465;-61
2022/08/08 12:53:26;;;;;;;5.50;2.67;;;28.30;30.90;;;;;;5056827;28;20506;-61
2022/08/08 12:55:59;;;;;;;4.10;2.60;;;28.20;31.10;;;;;;5056744;28;20517;-60
2022/08/08 12:58:27;;;;;;;4.10;2.40;;;28.20;31.10;;;;;;5056359;28;20970;-60
2022/08/08 13:00:55;;;;;;;3.57;2.80;;;28.20;31.20;;;;;;5056462;28;20789;-61
2022/08/08 13:03:33;;;;;;;4.40;3.00;;;28.20;31.50;;;;;;5055662;28;20487;-60
2022/08/08 13:06:09;;;;;;;3.97;3.00;;;28.20;31.60;;;;;;5056648;28;20532;-61
2022/08/08 13:08:45;;;;;;;2.57;2.37;;;28.30;31.30;;;;;;5055896;28;20535;-62
2022/08/08 13:11:20;;;;;;;3.17;2.70;;;28.30;31.40;;;;;;5055839;28;20562;-61
2022/08/08 13:14:05;;;;;;;4.33;2.40;;;28.40;31.00;;;;;;5055746;28;21118;-60
2022/08/08 13:16:34;;;;;;;2.30;2.07;;;28.40;30.80;;;;;;5055960;28;20435;-60
2022/08/08 13:19:05;;;;;;;3.40;2.60;;;28.30;30.70;;;;;;5055610;28;20445;-61
2022/08/08 13:21:40;;;;;;;4.10;2.53;;;28.30;30.80;;;;;;5056472;28;20441;-60
2022/08/08 13:24:08;;;;;;;3.20;2.93;;;28.10;30.80;;;;;;5055740;28;20431;-60
2022/08/08 13:26:35;;;;;;;4.60;2.83;;;28.10;30.90;;;;;;5055182;28;20547;-60
2022/08/08 13:29:09;;;;;;;2.67;2.47;;;27.90;31.10;;;;;;5055262;28;20457;-60
2022/08/08 13:31:45;;;;;;;3.03;2.60;;;28.00;31.30;;;;;;5054633;28;20497;-60
2022/08/08 13:34:19;;;;;;;3.20;2.90;;;28.00;31.20;;;;;;5054938;28;20754;-60
2022/08/08 13:36:48;;;;;;;3.00;2.60;;;28.10;31.20;;;;;;5054967;28;20426;-60
2022/08/08 13:39:16;;;;;;;3.13;2.70;;;28.00;31.20;;;;;;5055046;28;20450;-60
2022/08/08 13:41:43;;;;;;;2.60;2.40;;;28.10;31.20;;;;;;5054842;28;20532;-60
2022/08/08 13:44:11;;;;;;;3.67;2.90;;;28.10;31.20;;;;;;5055185;28;20482;-60
2022/08/08 13:46:39;;;;;;;3.80;3.00;;;28.10;31.40;;;;;;5055445;28;20480;-59